Time;durP1;ratioP1;P1;durP2;ratioP2;P2;SDS_P1;SDS_P2;PMS_P1;PMS_P2;Temp;Humidity;BMP_temperature;BMP_pressure;BME280_temperature;BME280_humidity;BME280_pressure;Samples;Min_cycle;Max_cycle;Signal;HPM_P1;HPM_P2
2023/05/09 00:01:38;;;;;;;22.90;12.85;;;14.90;99.90;;;;;;5071121;28;20097;-62
2023/05/09 00:04:04;;;;;;;24.67;14.10;;;14.80;99.90;;;;;;5069919;28;20414;-61
2023/05/09 00:06:31;;;;;;;21.70;13.68;;;14.80;99.90;;;;;;5068162;28;20025;-62
2023/05/09 00:08:57;;;;;;;25.77;13.60;;;14.80;99.90;;;;;;5062597;28;20021;-61
2023/05/09 00:11:22;;;;;;;21.30;13.85;;;14.70;99.90;;;;;;5073419;28;20091;-58
2023/05/09 00:13:49;;;;;;;22.38;13.50;;;14.70;99.90;;;;;;5065819;28;20096;-58
2023/05/09 00:16:15;;;;;;;23.23;14.32;;;14.70;99.90;;;;;;5068242;28;20484;-56
2023/05/09 00:18:42;;;;;;;26.70;14.63;;;14.70;99.90;;;;;;5068145;28;21716;-60
2023/05/09 00:21:09;;;;;;;25.00;14.95;;;14.70;99.90;;;;;;5058529;28;20021;-60
2023/05/09 00:23:35;;;;;;;28.75;14.80;;;14.60;99.90;;;;;;5060609;28;20039;-59
2023/05/09 00:26:01;;;;;;;30.23;15.95;;;14.60;99.90;;;;;;5065628;28;20515;-57
2023/05/09 00:28:26;;;;;;;23.02;14.75;;;14.60;99.90;;;;;;5063349;28;20036;-59
2023/05/09 00:30:52;;;;;;;26.52;16.88;;;14.60;99.90;;;;;;5060916;28;20040;-60
2023/05/09 00:33:19;;;;;;;26.00;15.95;;;14.60;99.90;;;;;;5058839;28;20499;-54
2023/05/09 00:35:44;;;;;;;27.15;16.27;;;14.60;99.90;;;;;;5062772;28;20029;-58
2023/05/09 00:38:10;;;;;;;27.58;15.45;;;14.60;99.90;;;;;;5062307;28;20382;-55
2023/05/09 00:40:36;;;;;;;23.33;15.25;;;14.70;99.90;;;;;;5064864;28;20036;-56
2023/05/09 00:43:01;;;;;;;29.27;16.63;;;14.70;99.90;;;;;;5061881;28;20040;-59
2023/05/09 00:45:27;;;;;;;32.85;15.27;;;14.70;99.90;;;;;;5065289;28;20032;-60
2023/05/09 00:47:53;;;;;;;24.02;15.43;;;14.70;99.90;;;;;;5063355;28;20069;-58
2023/05/09 00:50:18;;;;;;;30.75;15.98;;;14.70;99.90;;;;;;5060681;28;20111;-59
2023/05/09 00:52:44;;;;;;;26.30;15.55;;;14.70;99.90;;;;;;5066170;28;20071;-59
2023/05/09 00:55:10;;;;;;;24.35;14.43;;;14.60;99.90;;;;;;5064884;28;20032;-59
2023/05/09 00:57:35;;;;;;;25.30;14.55;;;14.70;99.90;;;;;;5063344;28;20368;-57
2023/05/09 01:00:03;;;;;;;27.38;15.18;;;14.70;99.90;;;;;;5061278;28;20035;-60
2023/05/09 01:02:30;;;;;;;30.45;17.45;;;14.80;99.90;;;;;;5057350;28;22171;-58
2023/05/09 01:04:55;;;;;;;22.23;14.57;;;14.80;99.90;;;;;;5063252;28;20031;-60
2023/05/09 01:07:39;;;;;;;27.40;14.90;;;14.90;99.90;;;;;;5061833;28;20032;-60
2023/05/09 01:10:22;;;;;;;30.98;16.40;;;14.90;99.90;;;;;;5061445;28;20404;-59
2023/05/09 01:13:04;;;;;;;24.02;15.50;;;14.90;99.90;;;;;;5059195;28;20033;-61
2023/05/09 01:15:58;;;;;;;28.70;14.32;;;14.80;99.90;;;;;;5063241;28;20024;-58
2023/05/09 01:18:34;;;;;;;26.98;15.60;;;14.90;99.90;;;;;;5062267;28;20020;-61
2023/05/09 01:21:10;;;;;;;23.10;15.15;;;14.90;99.90;;;;;;5061100;28;20016;-58
2023/05/09 01:23:47;;;;;;;28.42;15.77;;;14.90;99.90;;;;;;5064562;28;20509;-59
2023/05/09 01:26:36;;;;;;;27.38;14.75;;;14.90;99.90;;;;;;5069689;28;20500;-56
2023/05/09 01:29:37;;;;;;;27.23;15.32;;;14.90;99.90;;;;;;5062769;28;20078;-59
2023/05/09 01:32:08;;;;;;;27.38;14.60;;;14.90;99.90;;;;;;5064149;28;20504;-58
2023/05/09 01:34:36;;;;;;;31.67;14.57;;;14.90;99.90;;;;;;5067813;28;20127;-62
2023/05/09 01:37:04;;;;;;;38.70;16.65;;;14.90;99.90;;;;;;5071976;28;20025;-59
2023/05/09 01:39:32;;;;;;;34.95;17.83;;;14.90;99.90;;;;;;5066120;28;20394;-65
2023/05/09 01:42:01;;;;;;;25.48;14.43;;;14.90;99.90;;;;;;5073490;28;20105;-59
2023/05/09 01:44:32;;;;;;;25.90;15.00;;;15.00;99.90;;;;;;5071467;28;21539;-64
2023/05/09 01:46:59;;;;;;;24.88;14.90;;;15.00;99.90;;;;;;5066822;28;20025;-61
2023/05/09 01:49:27;;;;;;;33.58;16.65;;;15.00;99.90;;;;;;5069990;28;20028;-62
2023/05/09 01:51:54;;;;;;;30.35;16.52;;;15.00;99.90;;;;;;5064664;28;20025;-63
2023/05/09 01:54:21;;;;;;;30.75;17.58;;;15.00;99.90;;;;;;5072856;28;20434;-59
2023/05/09 01:56:47;;;;;;;26.55;15.45;;;15.00;99.90;;;;;;5070508;28;20024;-63
2023/05/09 01:59:15;;;;;;;32.55;17.92;;;15.00;99.90;;;;;;5070484;28;21355;-56
2023/05/09 02:01:42;;;;;;;28.95;17.10;;;15.00;99.90;;;;;;5067407;28;20103;-60
2023/05/09 02:04:08;;;;;;;32.95;17.92;;;14.90;99.90;;;;;;5069963;28;20039;-58
2023/05/09 02:06:35;;;;;;;34.53;18.98;;;14.90;99.90;;;;;;5070207;28;20035;-58
2023/05/09 02:09:01;;;;;;;28.05;17.48;;;14.90;99.90;;;;;;5067608;28;20020;-57
2023/05/09 02:11:27;;;;;;;32.13;17.40;;;14.90;99.90;;;;;;5070823;28;20031;-58
2023/05/09 02:13:53;;;;;;;29.38;15.98;;;14.90;99.90;;;;;;5072198;28;20100;-61
2023/05/09 02:16:19;;;;;;;29.52;17.92;;;14.90;99.90;;;;;;5067178;28;20024;-62
2023/05/09 02:18:45;;;;;;;44.88;19.27;;;14.90;99.90;;;;;;5074452;28;20024;-62
2023/05/09 02:21:11;;;;;;;28.38;18.20;;;14.90;99.90;;;;;;5063037;28;20072;-62
2023/05/09 02:23:37;;;;;;;26.98;16.20;;;14.90;99.90;;;;;;5072661;28;20368;-65
2023/05/09 02:26:02;;;;;;;31.73;19.25;;;14.90;99.90;;;;;;5064985;28;20044;-60
2023/05/09 02:28:29;;;;;;;30.23;17.63;;;14.90;99.90;;;;;;5062481;28;20039;-61
2023/05/09 02:30:57;;;;;;;33.70;19.20;;;15.00;99.90;;;;;;5061255;28;20039;-61
2023/05/09 02:33:23;;;;;;;35.97;17.80;;;15.00;99.90;;;;;;5072250;28;20024;-57
2023/05/09 02:35:51;;;;;;;31.70;17.27;;;15.00;99.90;;;;;;5060189;28;20032;-60
2023/05/09 02:38:18;;;;;;;42.05;20.75;;;15.00;99.90;;;;;;5072836;28;20036;-61
2023/05/09 02:40:46;;;;;;;38.92;20.23;;;15.00;99.90;;;;;;5061395;28;20103;-62
2023/05/09 02:43:11;;;;;;;37.78;21.05;;;15.00;99.90;;;;;;5066541;28;20024;-59
2023/05/09 02:45:37;;;;;;;38.95;21.23;;;14.90;99.90;;;;;;5062796;28;20416;-59
2023/05/09 02:48:02;;;;;;;39.20;19.05;;;14.90;99.90;;;;;;5065494;28;20025;-59
2023/05/09 02:50:28;;;;;;;34.33;20.25;;;14.90;99.90;;;;;;5070915;28;20028;-60
2023/05/09 02:52:54;;;;;;;29.60;17.80;;;14.90;99.90;;;;;;5061486;28;20047;-61
2023/05/09 02:55:19;;;;;;;36.20;19.17;;;14.90;99.90;;;;;;5062912;28;20025;-60
2023/05/09 02:57:45;;;;;;;34.75;19.33;;;14.90;99.90;;;;;;5060368;28;20028;-62
2023/05/09 03:00:11;;;;;;;34.72;18.27;;;14.90;99.90;;;;;;5065720;28;20029;-62
2023/05/09 03:02:37;;;;;;;34.50;18.83;;;14.90;99.90;;;;;;5062322;28;20157;-61
2023/05/09 03:05:03;;;;;;;33.88;18.70;;;14.90;99.90;;;;;;5070379;28;20082;-60
2023/05/09 03:07:29;;;;;;;38.97;20.70;;;14.90;99.90;;;;;;5062425;28;20128;-60
2023/05/09 03:09:55;;;;;;;37.95;21.27;;;14.90;99.90;;;;;;5066933;28;20158;-61
2023/05/09 03:12:20;;;;;;;32.60;18.85;;;14.90;99.90;;;;;;5069009;28;20103;-61
2023/05/09 03:14:46;;;;;;;38.90;20.35;;;14.90;99.90;;;;;;5069245;28;20078;-63
2023/05/09 03:17:16;;;;;;;35.28;20.42;;;14.90;99.90;;;;;;5068493;28;20024;-62
2023/05/09 03:19:41;;;;;;;42.80;22.27;;;14.90;99.90;;;;;;5063347;28;20103;-61
2023/05/09 03:22:07;;;;;;;36.28;20.25;;;14.90;99.90;;;;;;5063432;28;20517;-61
2023/05/09 03:24:32;;;;;;;39.40;20.42;;;14.90;99.90;;;;;;5062216;28;20020;-61
2023/05/09 03:26:58;;;;;;;39.65;21.05;;;14.80;99.90;;;;;;5063859;28;20048;-60
2023/05/09 03:29:24;;;;;;;36.65;20.13;;;14.90;99.90;;;;;;5068968;28;20150;-61
2023/05/09 03:31:49;;;;;;;40.95;22.08;;;14.80;99.90;;;;;;5068693;28;20032;-61
2023/05/09 03:34:15;;;;;;;34.88;19.45;;;14.80;99.90;;;;;;5063154;28;20020;-64
2023/05/09 03:36:42;;;;;;;35.13;20.13;;;14.80;99.90;;;;;;5065541;28;20198;-58
2023/05/09 03:39:08;;;;;;;39.78;20.30;;;14.80;99.90;;;;;;5065169;28;21543;-58
2023/05/09 03:41:35;;;;;;;37.50;20.88;;;14.70;99.90;;;;;;5061534;28;20031;-60
2023/05/09 03:44:01;;;;;;;40.15;22.08;;;14.80;99.90;;;;;;5061106;28;20399;-60
2023/05/09 03:46:27;;;;;;;40.47;22.48;;;14.80;99.90;;;;;;5065585;28;20036;-61
2023/05/09 03:48:52;;;;;;;40.30;22.60;;;14.80;99.90;;;;;;5061810;28;20032;-61
2023/05/09 03:51:18;;;;;;;37.35;21.52;;;14.70;99.90;;;;;;5063241;28;20115;-62
2023/05/09 03:53:46;;;;;;;45.55;23.55;;;14.70;99.90;;;;;;5068546;28;20029;-59
2023/05/09 03:56:12;;;;;;;46.22;24.05;;;14.70;99.90;;;;;;5068331;28;20024;-62
2023/05/09 03:58:38;;;;;;;39.00;20.42;;;14.70;99.90;;;;;;5070507;28;20388;-62
2023/05/09 04:01:04;;;;;;;40.83;22.58;;;14.80;99.90;;;;;;5069323;28;20031;-60
2023/05/09 04:03:30;;;;;;;45.47;22.77;;;14.80;99.90;;;;;;5069205;28;20103;-60
2023/05/09 04:05:56;;;;;;;39.67;21.25;;;14.70;99.90;;;;;;5069623;28;20052;-61
2023/05/09 04:08:22;;;;;;;39.78;21.88;;;14.70;99.90;;;;;;5070329;28;20113;-62
2023/05/09 04:10:49;;;;;;;38.38;20.80;;;14.80;99.90;;;;;;5069344;28;20099;-61
2023/05/09 04:13:15;;;;;;;43.33;22.70;;;14.80;99.90;;;;;;5072070;28;20104;-60
2023/05/09 04:15:41;;;;;;;43.45;24.00;;;14.80;99.90;;;;;;5066498;28;20024;-59
2023/05/09 04:18:06;;;;;;;44.47;23.73;;;14.80;99.90;;;;;;5065126;28;20392;-63
2023/05/09 04:20:32;;;;;;;43.55;23.50;;;14.70;99.90;;;;;;5068083;28;20021;-59
2023/05/09 04:22:57;;;;;;;44.72;23.92;;;14.70;99.90;;;;;;5064386;28;20051;-62
2023/05/09 04:25:23;;;;;;;44.92;25.30;;;14.70;99.90;;;;;;5063847;28;20027;-62
2023/05/09 04:27:49;;;;;;;44.50;24.30;;;14.70;99.90;;;;;;5066126;28;20062;-60
2023/05/09 04:30:15;;;;;;;41.85;22.30;;;14.70;99.90;;;;;;5064766;28;20029;-64
2023/05/09 04:32:44;;;;;;;41.45;23.65;;;14.70;99.90;;;;;;5065652;28;20395;-60
2023/05/09 04:35:11;;;;;;;47.00;23.38;;;14.70;99.90;;;;;;5062155;28;20024;-62
2023/05/09 04:37:36;;;;;;;50.15;23.75;;;14.70;99.90;;;;;;5061288;28;20474;-62
2023/05/09 04:40:03;;;;;;;45.03;25.88;;;14.60;99.90;;;;;;5060432;28;20670;-63
2023/05/09 04:42:32;;;;;;;45.40;22.55;;;14.60;99.90;;;;;;5055443;28;20151;-61
2023/05/09 04:44:58;;;;;;;44.40;23.20;;;14.60;99.90;;;;;;5062050;28;21147;-62
2023/05/09 04:47:23;;;;;;;41.92;23.70;;;14.60;99.90;;;;;;5069455;28;20484;-60
2023/05/09 04:49:49;;;;;;;46.15;23.80;;;14.60;99.90;;;;;;5055494;28;20484;-63
2023/05/09 04:52:14;;;;;;;46.90;24.42;;;14.70;99.90;;;;;;5057934;28;20037;-60
2023/05/09 04:54:40;;;;;;;48.75;25.25;;;14.70;99.90;;;;;;5063392;28;20032;-64
2023/05/09 04:57:05;;;;;;;41.80;23.65;;;14.70;99.90;;;;;;5065919;28;21020;-64
2023/05/09 04:59:31;;;;;;;47.38;24.77;;;14.70;99.90;;;;;;5061886;28;20042;-62
2023/05/09 05:01:57;;;;;;;43.70;23.73;;;14.70;99.90;;;;;;5061325;28;20020;-60
2023/05/09 05:04:22;;;;;;;44.90;23.50;;;14.80;99.90;;;;;;5064667;28;20029;-59
2023/05/09 05:06:48;;;;;;;44.33;22.70;;;14.80;99.90;;;;;;5070992;28;20036;-62
2023/05/09 05:09:13;;;;;;;43.53;22.00;;;14.80;99.90;;;;;;5069861;28;20024;-61
2023/05/09 05:11:39;;;;;;;38.08;21.17;;;14.90;99.90;;;;;;5066338;28;20437;-59
2023/05/09 05:14:05;;;;;;;47.13;24.88;;;15.00;99.90;;;;;;5066989;28;20107;-61
2023/05/09 05:16:30;;;;;;;40.78;22.45;;;15.00;99.90;;;;;;5066013;28;20032;-55
2023/05/09 05:18:56;;;;;;;43.55;21.17;;;15.00;99.90;;;;;;5061355;28;20068;-62
2023/05/09 05:21:21;;;;;;;42.47;22.48;;;15.10;99.90;;;;;;5063260;28;20027;-58
2023/05/09 05:23:47;;;;;;;43.00;21.88;;;15.10;99.90;;;;;;5064729;28;20104;-63
2023/05/09 05:26:12;;;;;;;42.92;24.45;;;15.20;99.90;;;;;;5062044;28;20028;-64
2023/05/09 05:28:38;;;;;;;45.75;24.27;;;15.20;99.90;;;;;;5064076;28;20036;-60
2023/05/09 05:31:03;;;;;;;40.38;21.58;;;15.30;99.90;;;;;;5061315;28;20028;-63
2023/05/09 05:33:29;;;;;;;48.28;23.80;;;15.40;99.90;;;;;;5072445;28;20085;-58
2023/05/09 05:35:54;;;;;;;50.92;23.15;;;15.40;99.90;;;;;;5066197;28;20032;-59
2023/05/09 05:38:20;;;;;;;34.20;21.10;;;15.40;99.90;;;;;;5070018;28;20035;-60
2023/05/09 05:40:45;;;;;;;41.42;21.10;;;15.50;99.90;;;;;;5069541;28;20024;-62
2023/05/09 05:43:11;;;;;;;36.10;21.10;;;15.50;99.90;;;;;;5070692;28;20032;-60
2023/05/09 05:45:36;;;;;;;39.65;22.40;;;15.50;99.90;;;;;;5072515;28;20078;-61
2023/05/09 05:48:02;;;;;;;33.80;19.70;;;15.60;99.90;;;;;;5070032;28;20025;-59
2023/05/09 05:50:28;;;;;;;46.95;22.60;;;15.60;99.90;;;;;;5077844;28;20517;-61
2023/05/09 05:52:53;;;;;;;40.28;21.38;;;15.70;99.90;;;;;;5074333;28;20093;-64
2023/05/09 05:55:19;;;;;;;38.30;21.05;;;15.70;99.90;;;;;;5076721;28;20073;-62
2023/05/09 05:57:46;;;;;;;35.75;21.30;;;15.70;99.90;;;;;;5076206;28;20024;-62
2023/05/09 06:00:13;;;;;;;42.28;22.85;;;15.80;99.90;;;;;;5072637;28;20025;-63
2023/05/09 06:02:42;;;;;;;39.30;22.02;;;15.80;99.90;;;;;;5075093;28;20040;-60
2023/05/09 06:05:08;;;;;;;36.22;20.95;;;15.90;99.90;;;;;;5075080;28;20035;-62
2023/05/09 06:07:34;;;;;;;37.55;20.45;;;16.00;99.90;;;;;;5071846;28;20036;-60
2023/05/09 06:09:59;;;;;;;44.65;21.58;;;16.00;99.90;;;;;;5073941;28;20048;-59
2023/05/09 06:12:25;;;;;;;38.38;21.13;;;16.10;99.90;;;;;;5071315;28;20528;-62
2023/05/09 06:14:50;;;;;;;38.08;21.55;;;16.20;99.90;;;;;;5072772;28;20059;-59
2023/05/09 06:17:16;;;;;;;38.72;22.33;;;16.20;99.90;;;;;;5076443;28;20021;-62
2023/05/09 06:19:42;;;;;;;44.78;24.85;;;16.30;99.90;;;;;;5076304;28;20031;-62
2023/05/09 06:22:07;;;;;;;39.13;22.02;;;16.40;99.90;;;;;;5073228;28;20725;-59
2023/05/09 06:24:33;;;;;;;39.85;21.90;;;16.40;99.90;;;;;;5070580;28;20032;-62
2023/05/09 06:26:58;;;;;;;38.15;20.83;;;16.50;99.90;;;;;;5077811;28;20032;-60
2023/05/09 06:29:24;;;;;;;38.15;21.02;;;16.60;99.90;;;;;;5072161;28;20035;-61
2023/05/09 06:31:49;;;;;;;40.97;19.85;;;16.70;99.90;;;;;;5072544;28;20028;-63
2023/05/09 06:34:15;;;;;;;37.63;19.95;;;16.80;99.90;;;;;;5075273;28;20035;-65
2023/05/09 06:36:40;;;;;;;32.30;19.55;;;16.90;99.90;;;;;;5075277;28;20090;-62
2023/05/09 06:39:06;;;;;;;30.77;18.45;;;17.00;99.90;;;;;;5070653;28;20124;-64
2023/05/09 06:41:31;;;;;;;32.10;17.95;;;17.00;99.90;;;;;;5076155;28;20052;-64
2023/05/09 06:43:57;;;;;;;34.25;17.13;;;17.20;99.90;;;;;;5073233;28;20036;-63
2023/05/09 06:46:23;;;;;;;33.28;15.10;;;17.30;99.90;;;;;;5076470;28;20029;-61
2023/05/09 06:48:48;;;;;;;22.17;12.75;;;17.30;99.90;;;;;;5065530;28;20038;-60
2023/05/09 06:51:14;;;;;;;16.90;11.20;;;17.40;99.90;;;;;;5075344;28;20028;-61
2023/05/09 06:53:39;;;;;;;16.45;10.00;;;17.50;99.90;;;;;;5071759;28;20063;-61
2023/05/09 06:56:05;;;;;;;18.10;10.82;;;17.50;99.90;;;;;;5074821;28;20032;-62
2023/05/09 06:58:30;;;;;;;14.73;9.95;;;17.60;99.90;;;;;;5077990;28;20090;-62
2023/05/09 07:00:56;;;;;;;18.13;10.57;;;17.60;99.90;;;;;;5070489;28;20032;-59
2023/05/09 07:03:22;;;;;;;12.98;8.65;;;17.60;99.90;;;;;;5075523;28;20024;-60
2023/05/09 07:05:47;;;;;;;12.93;8.93;;;17.70;99.90;;;;;;5072240;28;20033;-61
2023/05/09 07:08:13;;;;;;;15.98;9.30;;;17.80;99.90;;;;;;5077955;28;20082;-60
2023/05/09 07:10:38;;;;;;;11.43;8.07;;;17.90;99.90;;;;;;5071779;28;20024;-63
2023/05/09 07:13:04;;;;;;;13.43;8.52;;;18.00;99.90;;;;;;5071925;28;20040;-60
2023/05/09 07:15:30;;;;;;;21.33;8.88;;;18.20;99.90;;;;;;5071383;28;20449;-60
2023/05/09 07:17:55;;;;;;;14.05;7.85;;;18.30;99.90;;;;;;5071487;28;20048;-63
2023/05/09 07:20:22;;;;;;;12.10;7.85;;;18.40;99.90;;;;;;5070567;28;20067;-62
2023/05/09 07:22:47;;;;;;;15.63;8.40;;;18.40;99.90;;;;;;5065012;28;20446;-62
2023/05/09 07:25:13;;;;;;;11.98;7.20;;;18.40;99.90;;;;;;5071142;28;20101;-61
2023/05/09 07:27:38;;;;;;;9.88;6.72;;;18.40;99.90;;;;;;5074736;28;20036;-63
2023/05/09 07:30:05;;;;;;;9.63;6.53;;;18.40;99.90;;;;;;5070804;28;20039;-61
2023/05/09 07:32:30;;;;;;;13.10;6.40;;;18.60;99.90;;;;;;5071663;28;20028;-65
2023/05/09 07:34:56;;;;;;;11.30;6.82;;;18.70;99.90;;;;;;5070417;28;20024;-61
2023/05/09 07:37:21;;;;;;;9.35;6.45;;;18.70;99.90;;;;;;5071343;28;20029;-62
2023/05/09 07:39:47;;;;;;;10.93;6.15;;;18.70;99.90;;;;;;5072427;28;20024;-62
2023/05/09 07:42:13;;;;;;;10.13;5.80;;;18.80;99.90;;;;;;5068804;28;20386;-62
2023/05/09 07:44:38;;;;;;;7.85;5.38;;;18.90;99.90;;;;;;5076291;28;20040;-60
2023/05/09 07:47:04;;;;;;;15.10;6.00;;;18.90;99.90;;;;;;5070572;28;20506;-58
2023/05/09 07:49:33;;;;;;;7.03;4.05;;;19.00;99.90;;;;;;5073343;28;20387;-59
2023/05/09 07:51:58;;;;;;;7.80;4.88;;;19.00;99.90;;;;;;5072511;28;20028;-59
2023/05/09 07:54:24;;;;;;;8.20;4.53;;;19.10;99.90;;;;;;5072686;28;20020;-62
2023/05/09 07:56:50;;;;;;;5.50;3.80;;;19.10;99.90;;;;;;5068443;28;20066;-66
2023/05/09 07:59:16;;;;;;;7.97;3.63;;;18.90;99.90;;;;;;5067490;28;20105;-61
2023/05/09 08:01:41;;;;;;;10.35;3.67;;;18.90;99.90;;;;;;5069731;28;20052;-59
2023/05/09 08:04:08;;;;;;;6.18;3.05;;;18.90;99.90;;;;;;5073047;28;20146;-62
2023/05/09 08:06:34;;;;;;;6.00;3.47;;;18.90;99.90;;;;;;5071859;28;20031;-62
2023/05/09 08:09:00;;;;;;;5.63;2.72;;;18.80;99.90;;;;;;5067598;28;20052;-62
2023/05/09 08:11:26;;;;;;;4.78;2.85;;;18.80;99.90;;;;;;5077632;28;20500;-61
2023/05/09 08:13:52;;;;;;;9.18;3.50;;;18.80;99.90;;;;;;5066784;28;20392;-60
2023/05/09 08:16:18;;;;;;;5.13;2.97;;;18.80;99.90;;;;;;5065396;28;20036;-62
2023/05/09 08:18:43;;;;;;;5.00;2.88;;;18.70;99.90;;;;;;5066303;28;20017;-64
2023/05/09 08:21:09;;;;;;;6.13;3.05;;;18.80;99.90;;;;;;5069439;28;20024;-64
2023/05/09 08:23:34;;;;;;;3.72;2.58;;;18.90;99.90;;;;;;5069712;28;20322;-62
2023/05/09 08:26:00;;;;;;;5.00;2.50;;;19.00;99.90;;;;;;5069062;28;20063;-62
2023/05/09 08:28:27;;;;;;;2.58;2.00;;;18.90;99.90;;;;;;5075605;28;20064;-64
2023/05/09 08:30:53;;;;;;;2.70;2.13;;;18.90;99.90;;;;;;5070711;28;20024;-61
2023/05/09 08:33:19;;;;;;;4.70;2.13;;;19.00;99.90;;;;;;5070358;28;20484;-62
2023/05/09 08:35:49;;;;;;;4.47;2.30;;;19.10;99.90;;;;;;5071781;28;20077;-62
2023/05/09 08:38:14;;;;;;;2.95;2.17;;;19.20;99.90;;;;;;5071550;28;20078;-63
2023/05/09 08:40:40;;;;;;;3.63;1.85;;;19.30;99.90;;;;;;5074652;28;20031;-60
2023/05/09 08:43:06;;;;;;;3.63;2.33;;;19.40;99.90;;;;;;5070432;28;20032;-61
2023/05/09 08:45:38;;;;;;;8.30;2.00;;;19.50;99.90;;;;;;5069168;28;20415;-62
2023/05/09 08:48:05;;;;;;;3.42;1.90;;;19.50;99.90;;;;;;5069108;28;20032;-60
2023/05/09 08:50:31;;;;;;;3.63;2.30;;;19.60;99.90;;;;;;5067787;28;20032;-62
2023/05/09 08:52:57;;;;;;;6.03;2.28;;;19.70;99.90;;;;;;5069864;28;20029;-61
2023/05/09 08:55:23;;;;;;;5.30;2.05;;;19.80;99.90;;;;;;5069562;28;20032;-62
2023/05/09 08:57:50;;;;;;;3.20;2.75;;;19.90;99.90;;;;;;5069572;28;20064;-61
2023/05/09 09:00:19;;;;;;;5.03;2.40;;;19.90;99.90;;;;;;5067018;28;20094;-62
2023/05/09 09:02:45;;;;;;;3.33;1.98;;;19.70;99.90;;;;;;5075718;28;20036;-61
2023/05/09 09:05:11;;;;;;;3.97;1.83;;;19.80;99.90;;;;;;5068853;28;20108;-62
2023/05/09 09:07:39;;;;;;;4.05;1.98;;;19.80;99.90;;;;;;5069628;28;20024;-62
2023/05/09 09:10:06;;;;;;;3.90;2.42;;;19.90;99.90;;;;;;5069265;28;20033;-62
2023/05/09 09:12:33;;;;;;;3.83;1.98;;;20.00;99.90;;;;;;5065991;28;20052;-60
2023/05/09 09:15:03;;;;;;;2.90;1.77;;;20.20;99.90;;;;;;5063842;28;20032;-64
2023/05/09 09:17:31;;;;;;;8.30;2.60;;;20.30;99.90;;;;;;5069003;28;20020;-65
2023/05/09 09:19:59;;;;;;;8.30;2.13;;;20.40;99.90;;;;;;5069355;28;20503;-62
2023/05/09 09:22:32;;;;;;;4.57;1.80;;;20.30;99.90;;;;;;5068295;28;20017;-62
2023/05/09 09:25:01;;;;;;;6.28;2.10;;;20.30;99.90;;;;;;5067600;28;20033;-59
2023/05/09 09:27:27;;;;;;;3.25;2.17;;;20.00;99.90;;;;;;5065280;28;20025;-66
2023/05/09 09:29:53;;;;;;;4.25;2.05;;;20.10;99.90;;;;;;5060745;28;20028;-55
2023/05/09 09:32:19;;;;;;;5.00;1.85;;;20.20;99.90;;;;;;5066951;28;20028;-60
2023/05/09 09:34:48;;;;;;;3.67;1.83;;;20.20;99.90;;;;;;5070665;28;20387;-61
2023/05/09 09:37:22;;;;;;;4.95;2.20;;;20.40;99.90;;;;;;5065801;28;20029;-62
2023/05/09 09:39:55;;;;;;;4.85;1.33;;;20.60;99.90;;;;;;5068458;28;20099;-63
2023/05/09 09:42:22;;;;;;;6.32;2.00;;;20.80;99.90;;;;;;5074137;28;20053;-62
2023/05/09 09:45:01;;;;;;;8.15;1.92;;;20.90;99.90;;;;;;5073209;28;20021;-61
2023/05/09 09:47:31;;;;;;;2.33;1.98;;;20.90;99.90;;;;;;5069797;28;20154;-61
2023/05/09 09:49:56;;;;;;;3.00;1.92;;;21.00;99.90;;;;;;5068449;28;20021;-61
2023/05/09 09:52:26;;;;;;;6.45;2.10;;;21.00;99.90;;;;;;5071805;28;20021;-59
2023/05/09 09:54:55;;;;;;;3.38;2.03;;;21.00;99.90;;;;;;5073195;28;20020;-61
2023/05/09 09:57:35;;;;;;;6.00;1.98;;;21.10;99.90;;;;;;5073696;28;20472;-64
2023/05/09 10:00:00;;;;;;;2.67;1.88;;;21.30;99.90;;;;;;5076546;28;20225;-62
2023/05/09 10:02:26;;;;;;;5.03;1.90;;;21.40;99.90;;;;;;5077151;28;20100;-63
2023/05/09 10:04:51;;;;;;;1.90;1.55;;;21.50;99.90;;;;;;5076637;28;20022;-62
2023/05/09 10:07:22;;;;;;;5.78;1.90;;;21.50;99.90;;;;;;5073974;28;20024;-62
2023/05/09 10:09:48;;;;;;;2.10;1.63;;;21.50;99.90;;;;;;5073465;28;20632;-62
2023/05/09 10:12:18;;;;;;;4.00;2.17;;;21.40;99.90;;;;;;5073818;28;20032;-64
2023/05/09 10:14:44;;;;;;;3.20;1.85;;;21.40;99.90;;;;;;5073234;28;20108;-61
2023/05/09 10:17:13;;;;;;;2.35;1.55;;;21.40;99.90;;;;;;5078967;28;20089;-60
2023/05/09 10:19:44;;;;;;;4.15;2.00;;;21.50;99.90;;;;;;5076435;28;20043;-61
2023/05/09 10:22:13;;;;;;;4.70;2.28;;;21.30;99.90;;;;;;5077490;28;20020;-60
2023/05/09 10:24:46;;;;;;;5.47;1.73;;;21.40;99.90;;;;;;5073676;28;20032;-62
2023/05/09 10:27:13;;;;;;;5.53;1.90;;;21.30;99.90;;;;;;5070693;28;20024;-62
2023/05/09 10:29:54;;;;;;;7.07;2.30;;;21.50;99.90;;;;;;5076200;28;20052;-59
2023/05/09 10:32:31;;;;;;;2.97;1.85;;;21.60;99.90;;;;;;5074098;28;20410;-66
2023/05/09 10:35:05;;;;;;;1.92;1.63;;;21.60;99.90;;;;;;5079424;28;20016;-58
2023/05/09 10:37:32;;;;;;;4.32;2.53;;;21.50;99.90;;;;;;5075667;28;20052;-58
2023/05/09 10:40:01;;;;;;;4.45;2.00;;;21.50;99.90;;;;;;5075263;28;20030;-59
2023/05/09 10:42:28;;;;;;;5.55;1.77;;;21.70;99.90;;;;;;5074171;28;20017;-61
2023/05/09 10:44:55;;;;;;;3.22;2.13;;;21.50;99.90;;;;;;5072040;28;20024;-64
2023/05/09 10:47:21;;;;;;;5.70;2.13;;;21.60;99.90;;;;;;5070705;28;20046;-65
2023/05/09 10:49:48;;;;;;;2.53;2.00;;;21.60;99.90;;;;;;5082411;28;20070;-58
2023/05/09 10:52:14;;;;;;;9.15;2.53;;;21.60;99.90;;;;;;5076206;28;20032;-58
2023/05/09 10:54:39;;;;;;;3.90;1.95;;;21.70;99.90;;;;;;5075272;28;20563;-60
2023/05/09 10:57:08;;;;;;;3.50;2.13;;;21.80;99.90;;;;;;5073457;28;20107;-56
2023/05/09 10:59:41;;;;;;;5.68;1.92;;;21.80;99.90;;;;;;5071775;28;20095;-56
2023/05/09 11:02:17;;;;;;;3.63;2.50;;;22.00;99.90;;;;;;5074867;28;20412;-61
2023/05/09 11:04:44;;;;;;;4.75;2.28;;;22.00;99.90;;;;;;5071455;28;20024;-57
2023/05/09 11:07:24;;;;;;;4.00;2.30;;;22.30;99.90;;;;;;5070993;28;20029;-58
2023/05/09 11:10:29;;;;;;;9.70;1.67;;;22.30;99.90;;;;;;5068646;28;20025;-58
2023/05/09 11:12:56;;;;;;;3.83;2.28;;;22.30;99.90;;;;;;5050034;28;20108;-64
2023/05/09 11:15:22;;;;;;;5.25;2.47;;;22.30;99.90;;;;;;5047111;28;20051;-58
2023/05/09 11:18:08;;;;;;;4.55;2.10;;;22.50;99.90;;;;;;5061912;28;20044;-58
2023/05/09 11:20:35;;;;;;;3.35;1.75;;;23.00;99.90;;;;;;5073909;28;20111;-61
2023/05/09 11:23:04;;;;;;;5.93;1.92;;;23.30;99.90;;;;;;5071610;28;20021;-56
2023/05/09 11:25:30;;;;;;;8.15;2.45;;;23.50;99.90;;;;;;5070427;28;20038;-59
2023/05/09 11:28:02;;;;;;;2.75;1.85;;;23.40;99.90;;;;;;5071556;28;20025;-57
2023/05/09 11:30:39;;;;;;;8.23;2.08;;;23.50;99.90;;;;;;5070981;28;20037;-59
2023/05/09 11:33:05;;;;;;;3.90;2.17;;;23.20;99.90;;;;;;5070205;28;20082;-58
2023/05/09 11:35:33;;;;;;;2.38;1.98;;;22.90;99.90;;;;;;5066496;28;20032;-54
2023/05/09 11:38:05;;;;;;;3.17;1.75;;;22.70;99.90;;;;;;5061874;28;20384;-63
2023/05/09 11:40:32;;;;;;;4.65;1.75;;;22.80;99.90;;;;;;5065359;28;20027;-62
2023/05/09 11:43:00;;;;;;;3.90;1.40;;;22.90;99.90;;;;;;5066969;28;20029;-57
2023/05/09 11:45:32;;;;;;;3.53;1.75;;;22.90;99.90;;;;;;5061789;28;20024;-64
2023/05/09 11:47:59;;;;;;;3.60;2.50;;;23.10;99.90;;;;;;5069156;28;20035;-57
2023/05/09 11:50:25;;;;;;;4.28;1.80;;;23.50;99.90;;;;;;5069023;28;20028;-57
2023/05/09 11:52:52;;;;;;;5.95;1.48;;;23.60;99.90;;;;;;5069681;28;20484;-57
2023/05/09 11:55:21;;;;;;;3.55;1.30;;;23.30;99.90;;;;;;5067904;28;20231;-55
2023/05/09 11:57:51;;;;;;;5.43;1.60;;;22.90;99.90;;;;;;5071095;28;20025;-55
2023/05/09 12:00:19;;;;;;;3.00;2.13;;;23.00;99.90;;;;;;5067545;28;20032;-59
2023/05/09 12:02:45;;;;;;;3.47;1.33;;;23.10;99.90;;;;;;5073755;28;20062;-59
2023/05/09 12:05:13;;;;;;;2.42;1.20;;;23.50;99.90;;;;;;5063541;28;20562;-57
2023/05/09 12:07:40;;;;;;;2.40;1.30;;;23.50;99.90;;;;;;5067691;28;20039;-58
2023/05/09 12:10:11;;;;;;;4.13;1.25;;;23.60;99.90;;;;;;5067578;28;20024;-58
2023/05/09 12:12:42;;;;;;;5.05;1.42;;;23.30;99.90;;;;;;5064528;28;20020;-60
2023/05/09 12:15:08;;;;;;;5.75;1.50;;;23.30;99.90;;;;;;5067126;28;20086;-57
2023/05/09 12:17:37;;;;;;;7.43;1.70;;;23.20;99.90;;;;;;5072307;28;20033;-59
2023/05/09 12:20:04;;;;;;;5.07;1.58;;;22.90;99.90;;;;;;5065112;28;20063;-60
2023/05/09 12:22:31;;;;;;;2.95;1.30;;;23.00;99.90;;;;;;5067458;28;20017;-58
2023/05/09 12:25:00;;;;;;;2.20;1.35;;;23.00;99.90;;;;;;5070729;28;20090;-60
2023/05/09 12:27:28;;;;;;;4.68;1.58;;;23.00;99.90;;;;;;5068731;28;20480;-61
2023/05/09 12:29:54;;;;;;;4.68;1.40;;;22.80;99.90;;;;;;5073608;28;20040;-55
2023/05/09 12:32:21;;;;;;;3.22;1.45;;;22.90;99.90;;;;;;5070372;28;20099;-60
2023/05/09 12:34:47;;;;;;;4.13;1.73;;;22.70;99.90;;;;;;5069092;28;20488;-62
2023/05/09 12:37:18;;;;;;;5.28;1.90;;;22.90;99.90;;;;;;5067841;28;20081;-59